Anderson Acres, Nevada
Current Conditions -  °F | °C
As of 12:35 PM on Saturday 20 Dec 2014 (Local Time) from KRTS Reporting Station
Broken Clouds Broken Clouds  
Wind Chill: 37°   Ceiling: 11000
Heat Index: 45°   Visibility: 10mi
Dew Point: 32°   Wind: 18mph
Humidity: 61%   Direction: 240°WSW
Pressure: 30.07"   Gusts: 26mph
Location:  39.7378°N, 119.889°W
Report Text: KRTS 202035Z AUTO 24016G23KT 10SM SCT043 BKN110 07/00 A3007 RMK AO2
Loading
Personal Weather Stations






























Interactive Weather Map New forecast layout! Learn more

10-Day Weather Forecast

Advertisements
Track Severe Weather on mobile